sensor_id;sensor_type;location;lat;lon;timestamp;P1;durP1;ratioP1;P2;durP2;ratioP2
13580;SDS011;6861;46.170;7.222;2022-08-24T00:01:24;3.40;;;2.47;;
13580;SDS011;6861;46.170;7.222;2022-08-24T00:03:52;4.15;;;2.33;;
13580;SDS011;6861;46.170;7.222;2022-08-24T00:06:21;2.63;;;2.30;;
13580;SDS011;6861;46.170;7.222;2022-08-24T00:08:49;4.15;;;2.20;;
13580;SDS011;6861;46.170;7.222;2022-08-24T00:11:18;4.05;;;2.38;;
13580;SDS011;6861;46.170;7.222;2022-08-24T00:13:48;3.20;;;2.67;;
13580;SDS011;6861;46.170;7.222;2022-08-24T00:16:16;3.58;;;2.70;;
13580;SDS011;6861;46.170;7.222;2022-08-24T00:18:44;2.83;;;2.22;;
13580;SDS011;6861;46.170;7.222;2022-08-24T00:21:13;2.28;;;2.08;;
13580;SDS011;6861;46.170;7.222;2022-08-24T00:23:40;2.35;;;2.15;;
13580;SDS011;6861;46.170;7.222;2022-08-24T00:26:08;2.33;;;2.05;;
13580;SDS011;6861;46.170;7.222;2022-08-24T00:28:35;3.80;;;2.03;;
13580;SDS011;6861;46.170;7.222;2022-08-24T00:31:04;3.00;;;2.40;;
13580;SDS011;6861;46.170;7.222;2022-08-24T00:33:31;3.45;;;2.40;;
13580;SDS011;6861;46.170;7.222;2022-08-24T00:35:58;2.67;;;2.15;;
13580;SDS011;6861;46.170;7.222;2022-08-24T00:38:25;4.45;;;2.00;;
13580;SDS011;6861;46.170;7.222;2022-08-24T00:40:53;5.25;;;3.05;;
13580;SDS011;6861;46.170;7.222;2022-08-24T00:43:21;2.63;;;2.13;;
13580;SDS011;6861;46.170;7.222;2022-08-24T00:45:50;2.58;;;2.30;;
13580;SDS011;6861;46.170;7.222;2022-08-24T00:48:29;3.53;;;2.40;;
13580;SDS011;6861;46.170;7.222;2022-08-24T00:51:00;2.50;;;2.20;;
13580;SDS011;6861;46.170;7.222;2022-08-24T00:53:30;3.92;;;2.30;;
13580;SDS011;6861;46.170;7.222;2022-08-24T00:56:05;3.58;;;2.15;;
13580;SDS011;6861;46.170;7.222;2022-08-24T00:58:38;3.95;;;2.20;;
13580;SDS011;6861;46.170;7.222;2022-08-24T01:01:10;2.60;;;2.30;;
13580;SDS011;6861;46.170;7.222;2022-08-24T01:03:40;3.03;;;2.38;;
13580;SDS011;6861;46.170;7.222;2022-08-24T01:06:09;2.60;;;2.10;;
13580;SDS011;6861;46.170;7.222;2022-08-24T01:08:36;2.63;;;2.42;;
13580;SDS011;6861;46.170;7.222;2022-08-24T01:11:06;3.50;;;2.30;;
13580;SDS011;6861;46.170;7.222;2022-08-24T01:13:37;2.95;;;2.40;;
13580;SDS011;6861;46.170;7.222;2022-08-24T01:16:05;2.83;;;2.30;;
13580;SDS011;6861;46.170;7.222;2022-08-24T01:18:34;2.75;;;2.45;;
13580;SDS011;6861;46.170;7.222;2022-08-24T01:21:19;3.40;;;2.33;;
13580;SDS011;6861;46.170;7.222;2022-08-24T01:23:50;3.53;;;2.40;;
13580;SDS011;6861;46.170;7.222;2022-08-24T01:26:25;3.55;;;2.35;;
13580;SDS011;6861;46.170;7.222;2022-08-24T01:28:58;4.63;;;2.22;;
13580;SDS011;6861;46.170;7.222;2022-08-24T01:31:29;2.92;;;2.15;;
13580;SDS011;6861;46.170;7.222;2022-08-24T01:33:57;4.80;;;2.30;;
13580;SDS011;6861;46.170;7.222;2022-08-24T01:36:26;3.40;;;2.60;;
13580;SDS011;6861;46.170;7.222;2022-08-24T01:38:59;3.50;;;2.60;;
13580;SDS011;6861;46.170;7.222;2022-08-24T01:41:31;3.78;;;2.28;;
13580;SDS011;6861;46.170;7.222;2022-08-24T01:43:58;2.55;;;2.30;;
13580;SDS011;6861;46.170;7.222;2022-08-24T01:46:26;4.97;;;2.33;;
13580;SDS011;6861;46.170;7.222;2022-08-24T01:48:53;3.13;;;2.35;;
13580;SDS011;6861;46.170;7.222;2022-08-24T01:51:22;5.63;;;2.60;;
13580;SDS011;6861;46.170;7.222;2022-08-24T01:53:49;4.22;;;2.42;;
13580;SDS011;6861;46.170;7.222;2022-08-24T01:56:17;6.05;;;2.40;;
13580;SDS011;6861;46.170;7.222;2022-08-24T01:58:44;2.67;;;2.25;;
13580;SDS011;6861;46.170;7.222;2022-08-24T02:01:13;2.95;;;2.30;;
13580;SDS011;6861;46.170;7.222;2022-08-24T02:03:41;4.13;;;2.40;;
13580;SDS011;6861;46.170;7.222;2022-08-24T02:06:09;3.28;;;2.75;;
13580;SDS011;6861;46.170;7.222;2022-08-24T02:08:36;2.75;;;2.22;;
13580;SDS011;6861;46.170;7.222;2022-08-24T02:11:04;2.97;;;2.42;;
13580;SDS011;6861;46.170;7.222;2022-08-24T02:13:34;3.05;;;2.33;;
13580;SDS011;6861;46.170;7.222;2022-08-24T02:16:01;2.67;;;2.20;;
13580;SDS011;6861;46.170;7.222;2022-08-24T02:18:29;3.13;;;2.22;;
13580;SDS011;6861;46.170;7.222;2022-08-24T02:20:57;3.25;;;2.35;;
13580;SDS011;6861;46.170;7.222;2022-08-24T02:23:24;4.90;;;2.60;;
13580;SDS011;6861;46.170;7.222;2022-08-24T02:25:53;3.38;;;2.30;;
13580;SDS011;6861;46.170;7.222;2022-08-24T02:28:20;3.33;;;2.50;;
13580;SDS011;6861;46.170;7.222;2022-08-24T02:30:49;3.40;;;2.40;;
13580;SDS011;6861;46.170;7.222;2022-08-24T02:33:17;3.22;;;2.63;;
13580;SDS011;6861;46.170;7.222;2022-08-24T02:35:44;3.25;;;2.45;;
13580;SDS011;6861;46.170;7.222;2022-08-24T02:38:11;4.60;;;2.30;;
13580;SDS011;6861;46.170;7.222;2022-08-24T02:40:37;2.58;;;2.30;;
13580;SDS011;6861;46.170;7.222;2022-08-24T02:43:04;2.47;;;2.20;;
13580;SDS011;6861;46.170;7.222;2022-08-24T02:45:31;2.90;;;2.45;;
13580;SDS011;6861;46.170;7.222;2022-08-24T02:48:04;4.28;;;2.40;;
13580;SDS011;6861;46.170;7.222;2022-08-24T02:50:31;2.67;;;2.28;;
13580;SDS011;6861;46.170;7.222;2022-08-24T02:52:58;5.03;;;2.30;;
13580;SDS011;6861;46.170;7.222;2022-08-24T02:55:25;3.95;;;2.60;;
13580;SDS011;6861;46.170;7.222;2022-08-24T02:57:52;4.55;;;2.50;;
13580;SDS011;6861;46.170;7.222;2022-08-24T03:00:20;2.65;;;2.40;;
13580;SDS011;6861;46.170;7.222;2022-08-24T03:02:47;4.82;;;2.50;;
13580;SDS011;6861;46.170;7.222;2022-08-24T03:05:16;2.53;;;2.25;;
13580;SDS011;6861;46.170;7.222;2022-08-24T03:07:43;2.40;;;2.20;;
13580;SDS011;6861;46.170;7.222;2022-08-24T03:10:10;3.95;;;2.40;;
13580;SDS011;6861;46.170;7.222;2022-08-24T03:12:38;3.05;;;2.70;;
13580;SDS011;6861;46.170;7.222;2022-08-24T03:15:06;2.97;;;2.67;;
13580;SDS011;6861;46.170;7.222;2022-08-24T03:17:36;2.90;;;2.60;;
13580;SDS011;6861;46.170;7.222;2022-08-24T03:20:04;2.55;;;2.28;;
13580;SDS011;6861;46.170;7.222;2022-08-24T03:22:35;5.07;;;2.75;;
13580;SDS011;6861;46.170;7.222;2022-08-24T03:25:03;2.83;;;2.40;;
13580;SDS011;6861;46.170;7.222;2022-08-24T03:27:30;3.83;;;2.35;;
13580;SDS011;6861;46.170;7.222;2022-08-24T03:29:57;2.60;;;2.40;;
13580;SDS011;6861;46.170;7.222;2022-08-24T03:32:25;4.38;;;2.78;;
13580;SDS011;6861;46.170;7.222;2022-08-24T03:34:52;4.40;;;2.45;;
13580;SDS011;6861;46.170;7.222;2022-08-24T03:37:20;2.75;;;2.42;;
13580;SDS011;6861;46.170;7.222;2022-08-24T03:39:48;4.32;;;2.33;;
13580;SDS011;6861;46.170;7.222;2022-08-24T03:42:15;4.10;;;2.63;;
13580;SDS011;6861;46.170;7.222;2022-08-24T03:44:42;3.88;;;2.60;;
13580;SDS011;6861;46.170;7.222;2022-08-24T03:47:09;2.90;;;2.60;;
13580;SDS011;6861;46.170;7.222;2022-08-24T03:49:37;4.95;;;2.90;;
13580;SDS011;6861;46.170;7.222;2022-08-24T03:52:05;3.35;;;2.70;;
13580;SDS011;6861;46.170;7.222;2022-08-24T03:54:32;3.20;;;2.30;;
13580;SDS011;6861;46.170;7.222;2022-08-24T03:57:01;4.82;;;2.92;;
13580;SDS011;6861;46.170;7.222;2022-08-24T03:59:28;3.53;;;2.70;;
13580;SDS011;6861;46.170;7.222;2022-08-24T04:01:55;2.90;;;2.33;;
13580;SDS011;6861;46.170;7.222;2022-08-24T04:04:23;5.68;;;2.83;;
13580;SDS011;6861;46.170;7.222;2022-08-24T04:06:50;3.35;;;2.92;;
13580;SDS011;6861;46.170;7.222;2022-08-24T04:09:17;3.47;;;2.78;;
13580;SDS011;6861;46.170;7.222;2022-08-24T04:11:44;7.32;;;3.25;;
13580;SDS011;6861;46.170;7.222;2022-08-24T04:14:13;3.30;;;2.80;;
13580;SDS011;6861;46.170;7.222;2022-08-24T04:16:41;3.90;;;2.95;;
13580;SDS011;6861;46.170;7.222;2022-08-24T04:19:09;3.92;;;2.60;;
13580;SDS011;6861;46.170;7.222;2022-08-24T04:21:36;3.65;;;3.10;;
13580;SDS011;6861;46.170;7.222;2022-08-24T04:24:04;3.45;;;2.97;;
13580;SDS011;6861;46.170;7.222;2022-08-24T04:26:32;4.38;;;3.35;;
13580;SDS011;6861;46.170;7.222;2022-08-24T04:29:02;6.03;;;3.22;;
13580;SDS011;6861;46.170;7.222;2022-08-24T04:31:31;3.63;;;3.10;;
13580;SDS011;6861;46.170;7.222;2022-08-24T04:34:00;7.13;;;3.22;;
13580;SDS011;6861;46.170;7.222;2022-08-24T04:36:27;4.15;;;3.20;;
13580;SDS011;6861;46.170;7.222;2022-08-24T04:38:54;3.47;;;3.08;;
13580;SDS011;6861;46.170;7.222;2022-08-24T04:41:21;3.67;;;3.00;;
13580;SDS011;6861;46.170;7.222;2022-08-24T04:43:48;4.00;;;2.95;;
13580;SDS011;6861;46.170;7.222;2022-08-24T04:46:16;4.20;;;2.92;;
13580;SDS011;6861;46.170;7.222;2022-08-24T04:48:46;4.97;;;3.08;;
13580;SDS011;6861;46.170;7.222;2022-08-24T04:51:15;3.38;;;2.83;;
13580;SDS011;6861;46.170;7.222;2022-08-24T04:53:45;4.30;;;2.85;;
13580;SDS011;6861;46.170;7.222;2022-08-24T04:56:14;4.07;;;2.85;;
13580;SDS011;6861;46.170;7.222;2022-08-24T04:58:43;3.05;;;2.75;;
13580;SDS011;6861;46.170;7.222;2022-08-24T05:01:12;6.22;;;3.13;;
13580;SDS011;6861;46.170;7.222;2022-08-24T05:03:42;4.22;;;3.00;;
13580;SDS011;6861;46.170;7.222;2022-08-24T05:06:12;4.22;;;3.30;;
13580;SDS011;6861;46.170;7.222;2022-08-24T05:08:40;5.90;;;2.70;;
13580;SDS011;6861;46.170;7.222;2022-08-24T05:11:07;4.90;;;3.03;;
13580;SDS011;6861;46.170;7.222;2022-08-24T05:13:36;3.95;;;3.10;;
13580;SDS011;6861;46.170;7.222;2022-08-24T05:16:04;5.07;;;3.17;;
13580;SDS011;6861;46.170;7.222;2022-08-24T05:18:33;4.38;;;3.20;;
13580;SDS011;6861;46.170;7.222;2022-08-24T05:21:00;7.15;;;3.70;;
13580;SDS011;6861;46.170;7.222;2022-08-24T05:23:28;6.60;;;3.53;;
13580;SDS011;6861;46.170;7.222;2022-08-24T05:26:02;5.35;;;3.33;;
13580;SDS011;6861;46.170;7.222;2022-08-24T05:28:31;6.00;;;3.45;;
13580;SDS011;6861;46.170;7.222;2022-08-24T05:31:04;4.72;;;3.30;;
13580;SDS011;6861;46.170;7.222;2022-08-24T05:33:33;5.70;;;3.22;;
13580;SDS011;6861;46.170;7.222;2022-08-24T05:36:00;4.93;;;3.90;;
13580;SDS011;6861;46.170;7.222;2022-08-24T05:38:29;9.23;;;3.80;;
13580;SDS011;6861;46.170;7.222;2022-08-24T05:40:57;4.72;;;3.28;;
13580;SDS011;6861;46.170;7.222;2022-08-24T05:43:25;5.93;;;3.65;;
13580;SDS011;6861;46.170;7.222;2022-08-24T05:45:53;3.90;;;3.35;;
13580;SDS011;6861;46.170;7.222;2022-08-24T05:48:21;5.10;;;3.80;;
13580;SDS011;6861;46.170;7.222;2022-08-24T05:50:51;4.00;;;3.40;;
13580;SDS011;6861;46.170;7.222;2022-08-24T05:53:18;5.82;;;3.30;;
13580;SDS011;6861;46.170;7.222;2022-08-24T05:55:47;4.97;;;3.30;;
13580;SDS011;6861;46.170;7.222;2022-08-24T05:58:14;6.00;;;3.55;;
13580;SDS011;6861;46.170;7.222;2022-08-24T06:00:41;7.25;;;3.78;;
13580;SDS011;6861;46.170;7.222;2022-08-24T06:03:10;5.50;;;3.45;;
13580;SDS011;6861;46.170;7.222;2022-08-24T06:05:38;4.25;;;3.40;;
13580;SDS011;6861;46.170;7.222;2022-08-24T06:08:06;7.60;;;3.35;;
13580;SDS011;6861;46.170;7.222;2022-08-24T06:10:38;5.30;;;3.47;;
13580;SDS011;6861;46.170;7.222;2022-08-24T06:13:07;6.90;;;3.45;;
13580;SDS011;6861;46.170;7.222;2022-08-24T06:15:35;5.43;;;3.45;;
13580;SDS011;6861;46.170;7.222;2022-08-24T06:18:03;5.75;;;3.75;;
13580;SDS011;6861;46.170;7.222;2022-08-24T06:20:31;5.07;;;3.65;;
13580;SDS011;6861;46.170;7.222;2022-08-24T06:23:02;7.25;;;3.90;;
13580;SDS011;6861;46.170;7.222;2022-08-24T06:25:29;6.82;;;3.53;;
13580;SDS011;6861;46.170;7.222;2022-08-24T06:28:15;6.63;;;3.63;;
13580;SDS011;6861;46.170;7.222;2022-08-24T06:30:42;4.30;;;3.30;;
13580;SDS011;6861;46.170;7.222;2022-08-24T06:33:09;5.10;;;3.00;;
13580;SDS011;6861;46.170;7.222;2022-08-24T06:35:36;4.05;;;2.88;;
13580;SDS011;6861;46.170;7.222;2022-08-24T06:38:03;5.13;;;3.03;;
13580;SDS011;6861;46.170;7.222;2022-08-24T06:40:30;4.70;;;3.10;;
13580;SDS011;6861;46.170;7.222;2022-08-24T06:43:00;3.42;;;2.90;;
13580;SDS011;6861;46.170;7.222;2022-08-24T06:45:29;4.00;;;3.00;;
13580;SDS011;6861;46.170;7.222;2022-08-24T06:47:56;4.68;;;2.67;;
13580;SDS011;6861;46.170;7.222;2022-08-24T06:50:24;6.88;;;3.00;;
13580;SDS011;6861;46.170;7.222;2022-08-24T06:52:51;3.45;;;2.50;;
13580;SDS011;6861;46.170;7.222;2022-08-24T06:55:18;3.88;;;3.05;;
13580;SDS011;6861;46.170;7.222;2022-08-24T06:57:45;4.13;;;2.80;;
13580;SDS011;6861;46.170;7.222;2022-08-24T07:00:12;5.15;;;3.00;;
13580;SDS011;6861;46.170;7.222;2022-08-24T07:02:42;3.88;;;2.80;;
13580;SDS011;6861;46.170;7.222;2022-08-24T07:05:09;4.07;;;3.05;;
13580;SDS011;6861;46.170;7.222;2022-08-24T07:07:36;3.17;;;2.47;;
13580;SDS011;6861;46.170;7.222;2022-08-24T07:10:04;5.90;;;2.67;;
13580;SDS011;6861;46.170;7.222;2022-08-24T07:12:32;2.75;;;2.50;;
13580;SDS011;6861;46.170;7.222;2022-08-24T07:15:00;4.25;;;2.85;;
13580;SDS011;6861;46.170;7.222;2022-08-24T07:17:27;4.88;;;2.70;;
13580;SDS011;6861;46.170;7.222;2022-08-24T07:19:56;3.92;;;2.55;;
13580;SDS011;6861;46.170;7.222;2022-08-24T07:22:23;3.90;;;2.70;;
13580;SDS011;6861;46.170;7.222;2022-08-24T07:24:50;4.80;;;2.50;;
13580;SDS011;6861;46.170;7.222;2022-08-24T07:27:17;3.92;;;2.50;;
13580;SDS011;6861;46.170;7.222;2022-08-24T07:29:44;3.42;;;2.67;;
13580;SDS011;6861;46.170;7.222;2022-08-24T07:32:11;5.78;;;2.97;;
13580;SDS011;6861;46.170;7.222;2022-08-24T07:34:38;7.35;;;2.97;;
13580;SDS011;6861;46.170;7.222;2022-08-24T07:37:06;9.80;;;2.85;;
13580;SDS011;6861;46.170;7.222;2022-08-24T07:39:33;4.15;;;2.50;;
13580;SDS011;6861;46.170;7.222;2022-08-24T07:42:00;4.72;;;2.58;;
13580;SDS011;6861;46.170;7.222;2022-08-24T07:44:27;3.55;;;2.63;;
13580;SDS011;6861;46.170;7.222;2022-08-24T07:46:55;5.18;;;2.63;;
13580;SDS011;6861;46.170;7.222;2022-08-24T07:49:22;5.25;;;2.90;;
13580;SDS011;6861;46.170;7.222;2022-08-24T07:51:50;3.25;;;2.50;;
13580;SDS011;6861;46.170;7.222;2022-08-24T07:54:19;3.05;;;2.30;;
13580;SDS011;6861;46.170;7.222;2022-08-24T07:56:46;2.63;;;2.25;;
13580;SDS011;6861;46.170;7.222;2022-08-24T07:59:14;2.85;;;2.40;;
13580;SDS011;6861;46.170;7.222;2022-08-24T08:01:41;3.92;;;2.60;;
13580;SDS011;6861;46.170;7.222;2022-08-24T08:04:08;4.28;;;2.40;;
13580;SDS011;6861;46.170;7.222;2022-08-24T08:06:36;2.38;;;2.17;;
13580;SDS011;6861;46.170;7.222;2022-08-24T08:09:03;2.30;;;2.05;;
13580;SDS011;6861;46.170;7.222;2022-08-24T08:11:31;2.50;;;2.10;;
13580;SDS011;6861;46.170;7.222;2022-08-24T08:13:59;3.58;;;2.40;;
13580;SDS011;6861;46.170;7.222;2022-08-24T08:16:26;4.00;;;2.70;;
13580;SDS011;6861;46.170;7.222;2022-08-24T08:18:53;2.53;;;2.15;;
13580;SDS011;6861;46.170;7.222;2022-08-24T08:21:20;4.03;;;2.45;;
13580;SDS011;6861;46.170;7.222;2022-08-24T08:24:04;3.05;;;2.15;;
13580;SDS011;6861;46.170;7.222;2022-08-24T08:26:43;2.30;;;2.10;;
13580;SDS011;6861;46.170;7.222;2022-08-24T08:29:13;3.20;;;2.25;;
13580;SDS011;6861;46.170;7.222;2022-08-24T08:31:40;2.53;;;2.03;;
13580;SDS011;6861;46.170;7.222;2022-08-24T08:34:07;3.00;;;2.20;;
13580;SDS011;6861;46.170;7.222;2022-08-24T08:36:36;5.72;;;2.30;;
13580;SDS011;6861;46.170;7.222;2022-08-24T08:39:04;3.70;;;2.40;;
13580;SDS011;6861;46.170;7.222;2022-08-24T08:44:45;2.55;;;2.05;;
13580;SDS011;6861;46.170;7.222;2022-08-24T08:47:26;3.25;;;2.35;;
13580;SDS011;6861;46.170;7.222;2022-08-24T08:50:12;3.70;;;2.20;;
13580;SDS011;6861;46.170;7.222;2022-08-24T08:52:52;2.42;;;2.05;;
13580;SDS011;6861;46.170;7.222;2022-08-24T08:55:39;2.28;;;2.00;;
13580;SDS011;6861;46.170;7.222;2022-08-24T08:58:16;2.58;;;2.10;;
13580;SDS011;6861;46.170;7.222;2022-08-24T09:00:59;4.00;;;2.40;;
13580;SDS011;6861;46.170;7.222;2022-08-24T09:03:35;4.47;;;2.45;;
13580;SDS011;6861;46.170;7.222;2022-08-24T09:06:12;3.38;;;2.60;;
13580;SDS011;6861;46.170;7.222;2022-08-24T09:09:01;4.85;;;2.35;;
13580;SDS011;6861;46.170;7.222;2022-08-24T09:11:39;2.30;;;2.10;;
13580;SDS011;6861;46.170;7.222;2022-08-24T09:17:24;2.40;;;2.05;;
13580;SDS011;6861;46.170;7.222;2022-08-24T09:20:06;2.33;;;2.03;;
13580;SDS011;6861;46.170;7.222;2022-08-24T09:22:42;4.18;;;2.20;;
13580;SDS011;6861;46.170;7.222;2022-08-24T09:25:17;3.35;;;2.25;;
13580;SDS011;6861;46.170;7.222;2022-08-24T09:27:59;2.97;;;2.08;;
13580;SDS011;6861;46.170;7.222;2022-08-24T09:33:48;3.10;;;2.30;;
13580;SDS011;6861;46.170;7.222;2022-08-24T09:36:32;2.40;;;2.20;;
13580;SDS011;6861;46.170;7.222;2022-08-24T09:39:14;2.97;;;2.30;;
13580;SDS011;6861;46.170;7.222;2022-08-24T09:42:23;4.38;;;2.15;;
13580;SDS011;6861;46.170;7.222;2022-08-24T09:51:22;2.70;;;2.38;;
13580;SDS011;6861;46.170;7.222;2022-08-24T09:54:24;2.30;;;2.10;;
13580;SDS011;6861;46.170;7.222;2022-08-24T10:00:09;2.53;;;2.15;;
13580;SDS011;6861;46.170;7.222;2022-08-24T10:02:48;3.35;;;2.10;;
13580;SDS011;6861;46.170;7.222;2022-08-24T10:05:28;3.17;;;1.90;;
13580;SDS011;6861;46.170;7.222;2022-08-24T10:08:08;2.78;;;1.90;;
13580;SDS011;6861;46.170;7.222;2022-08-24T10:10:46;2.40;;;2.10;;
13580;SDS011;6861;46.170;7.222;2022-08-24T10:13:22;5.13;;;2.00;;
13580;SDS011;6861;46.170;7.222;2022-08-24T10:16:02;3.13;;;2.05;;
13580;SDS011;6861;46.170;7.222;2022-08-24T10:18:44;2.38;;;2.17;;
13580;SDS011;6861;46.170;7.222;2022-08-24T10:21:30;4.68;;;2.00;;
13580;SDS011;6861;46.170;7.222;2022-08-24T10:24:18;3.08;;;1.98;;
13580;SDS011;6861;46.170;7.222;2022-08-24T10:27:00;3.92;;;2.33;;
13580;SDS011;6861;46.170;7.222;2022-08-24T10:29:48;2.30;;;2.10;;
13580;SDS011;6861;46.170;7.222;2022-08-24T10:32:31;2.60;;;2.10;;
13580;SDS011;6861;46.170;7.222;2022-08-24T10:35:12;2.92;;;2.17;;
13580;SDS011;6861;46.170;7.222;2022-08-24T10:37:49;2.75;;;2.00;;
13580;SDS011;6861;46.170;7.222;2022-08-24T10:41:14;2.33;;;2.10;;
13580;SDS011;6861;46.170;7.222;2022-08-24T10:44:17;3.22;;;2.28;;
13580;SDS011;6861;46.170;7.222;2022-08-24T10:47:03;2.50;;;1.88;;
13580;SDS011;6861;46.170;7.222;2022-08-24T10:49:49;4.65;;;2.20;;
13580;SDS011;6861;46.170;7.222;2022-08-24T10:55:40;2.50;;;1.92;;
13580;SDS011;6861;46.170;7.222;2022-08-24T11:01:11;2.28;;;2.08;;
13580;SDS011;6861;46.170;7.222;2022-08-24T11:03:46;2.33;;;2.13;;
13580;SDS011;6861;46.170;7.222;2022-08-24T11:06:20;3.75;;;2.15;;
13580;SDS011;6861;46.170;7.222;2022-08-24T11:08:54;3.80;;;2.30;;
13580;SDS011;6861;46.170;7.222;2022-08-24T11:11:25;3.33;;;2.28;;
13580;SDS011;6861;46.170;7.222;2022-08-24T11:13:55;2.70;;;2.17;;
13580;SDS011;6861;46.170;7.222;2022-08-24T11:16:26;2.55;;;2.28;;
13580;SDS011;6861;46.170;7.222;2022-08-24T11:18:56;3.95;;;2.60;;
13580;SDS011;6861;46.170;7.222;2022-08-24T11:21:33;2.42;;;2.03;;
13580;SDS011;6861;46.170;7.222;2022-08-24T11:24:08;4.25;;;2.60;;
13580;SDS011;6861;46.170;7.222;2022-08-24T11:29:25;2.88;;;2.38;;
13580;SDS011;6861;46.170;7.222;2022-08-24T11:31:55;3.60;;;2.70;;
13580;SDS011;6861;46.170;7.222;2022-08-24T11:34:31;6.55;;;2.50;;
13580;SDS011;6861;46.170;7.222;2022-08-24T11:37:00;3.97;;;2.45;;
13580;SDS011;6861;46.170;7.222;2022-08-24T11:39:31;2.85;;;2.50;;
13580;SDS011;6861;46.170;7.222;2022-08-24T11:42:02;3.78;;;2.60;;
13580;SDS011;6861;46.170;7.222;2022-08-24T11:44:42;2.65;;;2.25;;
13580;SDS011;6861;46.170;7.222;2022-08-24T11:47:22;5.72;;;2.22;;
13580;SDS011;6861;46.170;7.222;2022-08-24T11:50:16;3.78;;;2.38;;
13580;SDS011;6861;46.170;7.222;2022-08-24T11:52:51;4.18;;;2.30;;
13580;SDS011;6861;46.170;7.222;2022-08-24T11:55:29;2.85;;;2.45;;
13580;SDS011;6861;46.170;7.222;2022-08-24T11:58:04;4.90;;;2.15;;
13580;SDS011;6861;46.170;7.222;2022-08-24T12:00:43;3.60;;;2.35;;
13580;SDS011;6861;46.170;7.222;2022-08-24T12:03:22;4.88;;;2.60;;
13580;SDS011;6861;46.170;7.222;2022-08-24T12:06:03;4.60;;;2.35;;
13580;SDS011;6861;46.170;7.222;2022-08-24T12:08:40;3.38;;;2.22;;
13580;SDS011;6861;46.170;7.222;2022-08-24T12:11:14;4.03;;;2.30;;
13580;SDS011;6861;46.170;7.222;2022-08-24T12:13:48;2.70;;;2.20;;
13580;SDS011;6861;46.170;7.222;2022-08-24T12:16:23;8.02;;;2.53;;
13580;SDS011;6861;46.170;7.222;2022-08-24T12:19:00;2.65;;;2.20;;
13580;SDS011;6861;46.170;7.222;2022-08-24T12:21:31;3.47;;;2.33;;
13580;SDS011;6861;46.170;7.222;2022-08-24T12:24:03;3.00;;;2.60;;
13580;SDS011;6861;46.170;7.222;2022-08-24T12:26:36;2.40;;;2.20;;
13580;SDS011;6861;46.170;7.222;2022-08-24T12:29:07;3.30;;;2.20;;
13580;SDS011;6861;46.170;7.222;2022-08-24T12:31:39;3.53;;;2.33;;
13580;SDS011;6861;46.170;7.222;2022-08-24T12:34:10;5.15;;;2.35;;
13580;SDS011;6861;46.170;7.222;2022-08-24T12:36:46;5.75;;;2.47;;
13580;SDS011;6861;46.170;7.222;2022-08-24T12:39:25;4.70;;;2.45;;
13580;SDS011;6861;46.170;7.222;2022-08-24T12:42:00;3.42;;;2.13;;
13580;SDS011;6861;46.170;7.222;2022-08-24T12:44:36;4.68;;;2.28;;
13580;SDS011;6861;46.170;7.222;2022-08-24T12:47:08;4.53;;;2.20;;
13580;SDS011;6861;46.170;7.222;2022-08-24T12:49:37;2.67;;;2.10;;
13580;SDS011;6861;46.170;7.222;2022-08-24T12:52:28;4.00;;;2.20;;
13580;SDS011;6861;46.170;7.222;2022-08-24T12:55:45;4.35;;;2.28;;
13580;SDS011;6861;46.170;7.222;2022-08-24T13:01:40;2.28;;;2.08;;
13580;SDS011;6861;46.170;7.222;2022-08-24T13:04:12;4.65;;;2.20;;
13580;SDS011;6861;46.170;7.222;2022-08-24T13:06:45;3.72;;;2.20;;
13580;SDS011;6861;46.170;7.222;2022-08-24T13:09:26;4.22;;;2.60;;
13580;SDS011;6861;46.170;7.222;2022-08-24T13:11:57;8.30;;;2.50;;
13580;SDS011;6861;46.170;7.222;2022-08-24T13:14:27;4.95;;;2.42;;
13580;SDS011;6861;46.170;7.222;2022-08-24T13:17:11;5.70;;;2.45;;
13580;SDS011;6861;46.170;7.222;2022-08-24T13:19:41;2.20;;;2.00;;
13580;SDS011;6861;46.170;7.222;2022-08-24T13:25:25;2.70;;;2.50;;
13580;SDS011;6861;46.170;7.222;2022-08-24T13:28:08;3.78;;;2.40;;
13580;SDS011;6861;46.170;7.222;2022-08-24T13:34:34;6.00;;;2.38;;
13580;SDS011;6861;46.170;7.222;2022-08-24T13:37:09;6.45;;;2.25;;
13580;SDS011;6861;46.170;7.222;2022-08-24T13:42:41;5.05;;;2.35;;
13580;SDS011;6861;46.170;7.222;2022-08-24T13:45:30;4.72;;;2.55;;
13580;SDS011;6861;46.170;7.222;2022-08-24T13:48:09;4.65;;;2.35;;
13580;SDS011;6861;46.170;7.222;2022-08-24T13:50:49;4.28;;;2.60;;
13580;SDS011;6861;46.170;7.222;2022-08-24T13:53:42;4.88;;;2.22;;
13580;SDS011;6861;46.170;7.222;2022-08-24T13:56:20;3.03;;;2.40;;
13580;SDS011;6861;46.170;7.222;2022-08-24T13:58:58;3.35;;;2.22;;
13580;SDS011;6861;46.170;7.222;2022-08-24T14:01:33;4.70;;;2.40;;
13580;SDS011;6861;46.170;7.222;2022-08-24T14:04:07;3.42;;;2.40;;
13580;SDS011;6861;46.170;7.222;2022-08-24T14:06:50;4.95;;;2.90;;
13580;SDS011;6861;46.170;7.222;2022-08-24T14:09:28;3.75;;;2.30;;
13580;SDS011;6861;46.170;7.222;2022-08-24T14:12:08;4.85;;;2.30;;
13580;SDS011;6861;46.170;7.222;2022-08-24T14:14:49;3.05;;;2.67;;
13580;SDS011;6861;46.170;7.222;2022-08-24T14:17:28;5.60;;;2.40;;
13580;SDS011;6861;46.170;7.222;2022-08-24T14:20:21;7.30;;;2.38;;
13580;SDS011;6861;46.170;7.222;2022-08-24T14:23:02;5.25;;;2.50;;
13580;SDS011;6861;46.170;7.222;2022-08-24T14:25:34;4.75;;;2.20;;
13580;SDS011;6861;46.170;7.222;2022-08-24T14:33:58;4.78;;;2.55;;
13580;SDS011;6861;46.170;7.222;2022-08-24T14:36:42;4.32;;;2.30;;
13580;SDS011;6861;46.170;7.222;2022-08-24T14:39:23;3.28;;;2.50;;
13580;SDS011;6861;46.170;7.222;2022-08-24T14:42:01;5.65;;;2.30;;
13580;SDS011;6861;46.170;7.222;2022-08-24T14:44:45;4.07;;;2.72;;
13580;SDS011;6861;46.170;7.222;2022-08-24T14:47:35;4.05;;;2.50;;
13580;SDS011;6861;46.170;7.222;2022-08-24T14:50:13;4.05;;;2.28;;
13580;SDS011;6861;46.170;7.222;2022-08-24T14:52:58;4.93;;;2.63;;
13580;SDS011;6861;46.170;7.222;2022-08-24T14:55:35;4.30;;;2.40;;
13580;SDS011;6861;46.170;7.222;2022-08-24T14:58:11;5.85;;;2.58;;
13580;SDS011;6861;46.170;7.222;2022-08-24T15:00:47;4.50;;;2.10;;
13580;SDS011;6861;46.170;7.222;2022-08-24T15:03:27;3.08;;;2.35;;
13580;SDS011;6861;46.170;7.222;2022-08-24T15:06:10;8.85;;;2.60;;
13580;SDS011;6861;46.170;7.222;2022-08-24T15:08:48;5.35;;;2.30;;
13580;SDS011;6861;46.170;7.222;2022-08-24T15:11:21;5.18;;;2.10;;
13580;SDS011;6861;46.170;7.222;2022-08-24T15:13:53;5.53;;;2.22;;
13580;SDS011;6861;46.170;7.222;2022-08-24T15:16:26;2.65;;;2.10;;
13580;SDS011;6861;46.170;7.222;2022-08-24T15:19:02;5.63;;;2.42;;
13580;SDS011;6861;46.170;7.222;2022-08-24T15:21:44;3.05;;;2.17;;
13580;SDS011;6861;46.170;7.222;2022-08-24T15:24:21;3.42;;;2.67;;
13580;SDS011;6861;46.170;7.222;2022-08-24T15:27:04;7.88;;;2.25;;
13580;SDS011;6861;46.170;7.222;2022-08-24T15:29:45;2.75;;;2.30;;
13580;SDS011;6861;46.170;7.222;2022-08-24T15:32:14;2.42;;;2.22;;
13580;SDS011;6861;46.170;7.222;2022-08-24T15:34:43;7.30;;;2.45;;
13580;SDS011;6861;46.170;7.222;2022-08-24T15:37:13;3.28;;;2.20;;
13580;SDS011;6861;46.170;7.222;2022-08-24T15:39:41;3.88;;;2.33;;
13580;SDS011;6861;46.170;7.222;2022-08-24T15:42:12;3.72;;;1.92;;
13580;SDS011;6861;46.170;7.222;2022-08-24T15:44:40;2.58;;;2.30;;
13580;SDS011;6861;46.170;7.222;2022-08-24T15:47:18;3.53;;;2.42;;
13580;SDS011;6861;46.170;7.222;2022-08-24T15:49:50;4.25;;;2.40;;
13580;SDS011;6861;46.170;7.222;2022-08-24T15:58:12;3.97;;;2.05;;
13580;SDS011;6861;46.170;7.222;2022-08-24T16:00:52;2.60;;;2.13;;
13580;SDS011;6861;46.170;7.222;2022-08-24T16:03:45;2.72;;;2.13;;
13580;SDS011;6861;46.170;7.222;2022-08-24T16:06:16;3.05;;;2.65;;
13580;SDS011;6861;46.170;7.222;2022-08-24T16:08:52;2.72;;;2.38;;
13580;SDS011;6861;46.170;7.222;2022-08-24T16:11:29;4.68;;;2.35;;
13580;SDS011;6861;46.170;7.222;2022-08-24T16:14:00;2.85;;;2.38;;
13580;SDS011;6861;46.170;7.222;2022-08-24T16:16:32;4.43;;;2.55;;
13580;SDS011;6861;46.170;7.222;2022-08-24T16:19:03;4.32;;;2.33;;
13580;SDS011;6861;46.170;7.222;2022-08-24T16:21:33;2.58;;;2.28;;
13580;SDS011;6861;46.170;7.222;2022-08-24T16:24:05;4.65;;;2.30;;
13580;SDS011;6861;46.170;7.222;2022-08-24T16:26:49;3.40;;;2.40;;